createdAt,value
2024-02-27T00:01:06.205Z,101297.59
2024-02-27T00:03:08.782Z,101292.44
2024-02-27T00:05:11.365Z,101296.31
2024-02-27T00:07:14.385Z,101300.34
2024-02-27T00:09:19.951Z,101290.50
2024-02-27T00:11:23.140Z,101296.84
2024-02-27T00:13:25.810Z,101290.97
2024-02-27T00:15:28.369Z,101284.66
2024-02-27T00:17:30.973Z,101282.81
2024-02-27T00:19:33.783Z,101288.97
2024-02-27T00:21:36.618Z,101289.13
2024-02-27T00:23:39.306Z,101282.81
2024-02-27T00:25:41.919Z,101283.78
2024-02-27T00:27:44.435Z,101282.00
2024-02-27T00:29:47.069Z,101272.28
2024-02-27T00:31:49.616Z,101266.81
2024-02-27T00:33:52.500Z,101273.34
2024-02-27T00:35:55.214Z,101277.38
2024-02-27T00:37:57.844Z,101274.56
2024-02-27T00:40:00.725Z,101282.56
2024-02-27T00:42:05.069Z,101271.34
2024-02-27T00:44:08.735Z,101283.59
2024-02-27T00:46:11.329Z,101281.06
2024-02-27T00:48:14.149Z,101278.41
2024-02-27T00:50:16.960Z,101284.56
2024-02-27T00:52:19.556Z,101286.25
2024-02-27T00:54:22.110Z,101288.94
2024-02-27T00:56:24.851Z,101276.22
2024-02-27T00:58:28.156Z,101278.56
2024-02-27T01:00:30.699Z,101282.91
2024-02-27T01:02:33.317Z,101273.22
2024-02-27T01:04:35.897Z,101285.59
2024-02-27T01:06:38.548Z,101280.56
2024-02-27T01:08:41.327Z,101280.25
2024-02-27T01:10:43.938Z,101280.41
2024-02-27T01:12:47.053Z,101276.34
2024-02-27T01:14:49.661Z,101274.69
2024-02-27T01:16:52.180Z,101275.84
2024-02-27T01:18:54.873Z,101282.84
2024-02-27T01:20:57.501Z,101274.34
2024-02-27T01:23:00.115Z,101280.19
2024-02-27T01:25:03.294Z,101261.00
2024-02-27T01:27:07.302Z,101268.69
2024-02-27T01:29:09.976Z,101276.53
2024-02-27T01:31:12.568Z,101278.53
2024-02-27T01:33:15.283Z,101279.69
2024-02-27T01:35:19.998Z,101282.50
2024-02-27T01:37:22.613Z,101273.66
2024-02-27T01:39:27.405Z,101272.16
2024-02-27T01:41:30.398Z,101268.94
2024-02-27T01:43:33.090Z,101275.06
2024-02-27T01:45:36.184Z,101269.72
2024-02-27T01:47:38.900Z,101272.41
2024-02-27T01:49:43.032Z,101280.56
2024-02-27T01:51:48.415Z,101274.25
2024-02-27T01:53:56.109Z,101272.75
2024-02-27T01:56:00.441Z,101271.44
2024-02-27T01:58:03.121Z,101274.75
2024-02-27T02:00:10.985Z,101270.41
2024-02-27T02:02:15.400Z,101268.75
2024-02-27T02:04:18.720Z,101264.06
2024-02-27T02:06:21.601Z,101267.59
2024-02-27T02:08:24.183Z,101277.41
2024-02-27T02:10:26.875Z,101279.09
2024-02-27T02:12:29.779Z,101273.44
2024-02-27T02:14:32.561Z,101260.91
2024-02-27T02:16:35.295Z,101277.94
2024-02-27T02:18:38.316Z,101266.28
2024-02-27T02:20:41.024Z,101268.13
2024-02-27T02:22:43.773Z,101275.78
2024-02-27T02:24:47.253Z,101276.47
2024-02-27T02:26:50.638Z,101271.13
2024-02-27T02:28:53.265Z,101286.84
2024-02-27T02:30:56.175Z,101266.81
2024-02-27T02:32:58.920Z,101278.38
2024-02-27T02:35:01.577Z,101289.88
2024-02-27T02:37:05.861Z,101282.16
2024-02-27T02:39:08.394Z,101279.03
2024-02-27T02:41:10.947Z,101287.91
2024-02-27T02:43:13.554Z,101283.25
2024-02-27T02:45:16.514Z,101278.19
2024-02-27T02:47:19.226Z,101269.84
2024-02-27T02:49:22.086Z,101285.69
2024-02-27T02:51:25.140Z,101284.69
2024-02-27T02:53:27.819Z,101275.53
2024-02-27T02:55:30.472Z,101273.03
2024-02-27T02:57:34.081Z,101284.69
2024-02-27T02:59:36.730Z,101279.00
2024-02-27T03:01:39.272Z,101284.00
2024-02-27T03:03:41.961Z,101267.16
2024-02-27T03:05:44.753Z,101277.00
2024-02-27T03:07:47.519Z,101276.00
2024-02-27T03:09:50.058Z,101273.34
2024-02-27T03:11:52.703Z,101285.69
2024-02-27T03:13:55.221Z,101275.03
2024-02-27T03:15:58.162Z,101278.53
2024-02-27T03:18:00.895Z,101283.03
2024-02-27T03:20:06.937Z,101278.84
2024-02-27T03:22:10.696Z,101282.66
2024-02-27T03:24:13.366Z,101275.66
2024-02-27T03:26:17.769Z,101272.16
2024-02-27T03:28:20.365Z,101288.84
2024-02-27T03:30:22.958Z,101288.84
2024-02-27T03:32:25.622Z,101291.50
2024-02-27T03:34:28.487Z,101286.31
2024-02-27T03:36:31.423Z,101295.31
2024-02-27T03:38:34.838Z,101296.16
2024-02-27T03:40:37.649Z,101289.13
2024-02-27T03:42:40.851Z,101294.78
2024-02-27T03:44:49.147Z,101293.28
2024-02-27T03:46:52.079Z,101294.28
2024-02-27T03:48:54.914Z,101296.09
2024-02-27T03:50:57.566Z,101297.91
2024-02-27T03:53:00.157Z,101295.94
2024-02-27T03:55:02.707Z,101285.28
2024-02-27T03:57:06.986Z,101291.28
2024-02-27T03:59:12.054Z,101303.47
2024-02-27T04:01:18.608Z,101303.63
2024-02-27T04:03:21.202Z,101299.44
2024-02-27T04:05:23.840Z,101305.00
2024-02-27T04:07:27.148Z,101301.16
2024-02-27T04:09:30.440Z,101308.69
2024-02-27T04:11:33.066Z,101322.72
2024-02-27T04:13:36.513Z,101317.94
2024-02-27T04:15:40.219Z,101325.94
2024-02-27T04:17:42.843Z,101327.75
2024-02-27T04:19:45.501Z,101330.41
2024-02-27T04:21:48.266Z,101325.94
2024-02-27T04:23:50.930Z,101324.09
2024-02-27T04:25:53.509Z,101329.09
2024-02-27T04:27:56.220Z,101329.66
2024-02-27T04:29:58.827Z,101329.66
2024-02-27T04:32:01.389Z,101329.94
2024-02-27T04:34:04.852Z,101326.44
2024-02-27T04:36:10.599Z,101329.47
2024-02-27T04:38:13.208Z,101329.31
2024-02-27T04:40:15.833Z,101325.81
2024-02-27T04:42:18.404Z,101324.97
2024-02-27T04:44:21.460Z,101320.84
2024-02-27T04:46:25.194Z,101305.34
2024-02-27T04:48:27.883Z,101305.72
2024-02-27T04:50:30.591Z,101310.59
2024-02-27T04:52:33.341Z,101303.75
2024-02-27T04:54:38.698Z,101308.06
2024-02-27T04:56:44.149Z,101306.78
2024-02-27T04:58:46.699Z,101299.09
2024-02-27T05:00:49.523Z,101311.84
2024-02-27T05:02:52.210Z,101307.31
2024-02-27T05:04:54.806Z,101310.88
2024-02-27T05:06:57.464Z,101295.19
2024-02-27T05:09:00.251Z,101307.22
2024-02-27T05:11:03.890Z,101298.88
2024-02-27T05:13:06.579Z,101300.41
2024-02-27T05:15:09.512Z,101308.44
2024-02-27T05:17:12.371Z,101308.78
2024-02-27T05:19:15.157Z,101304.81
2024-02-27T05:21:21.385Z,101310.97
2024-02-27T05:23:24.112Z,101308.81
2024-02-27T05:25:26.657Z,101309.13
2024-02-27T05:27:29.318Z,101309.31
2024-02-27T05:29:34.260Z,101305.31
2024-02-27T05:31:37.130Z,101303.16
2024-02-27T05:33:39.862Z,101307.66
2024-02-27T05:35:47.556Z,101313.34
2024-02-27T05:37:50.488Z,101312.53
2024-02-27T05:39:53.193Z,101308.34
2024-02-27T05:41:55.944Z,101312.22
2024-02-27T05:43:59.884Z,101307.03
2024-02-27T05:46:02.376Z,101300.50
2024-02-27T05:48:05.557Z,101299.34
2024-02-27T05:50:08.806Z,101291.47
2024-02-27T05:52:11.317Z,101285.78
2024-02-27T05:54:13.881Z,101285.91
2024-02-27T05:56:18.034Z,101292.75
2024-02-27T05:58:21.517Z,101286.22
2024-02-27T06:00:24.469Z,101283.38
2024-02-27T06:02:27.137Z,101292.03
2024-02-27T06:04:29.767Z,101292.19
2024-02-27T06:06:32.347Z,101297.03
2024-02-27T06:08:35.229Z,101287.16
2024-02-27T06:10:38.381Z,101289.31
2024-02-27T06:12:41.085Z,101284.78
2024-02-27T06:14:43.786Z,101276.75
2024-02-27T06:16:46.386Z,101284.56
2024-02-27T06:18:49.522Z,101288.06
2024-02-27T06:21:11.090Z,101286.34
2024-02-27T06:23:13.718Z,101285.31
2024-02-27T06:25:16.473Z,101285.78
2024-02-27T06:27:19.180Z,101292.09
2024-02-27T06:29:21.927Z,101283.34
2024-02-27T06:31:24.501Z,101282.31
2024-02-27T06:33:27.162Z,101278.78
2024-02-27T06:35:30.013Z,101275.56
2024-02-27T06:37:32.688Z,101289.44
2024-02-27T06:39:35.459Z,101292.72
2024-02-27T06:41:38.088Z,101284.81
2024-02-27T06:43:40.600Z,101290.78
2024-02-27T06:45:43.239Z,101286.38
2024-02-27T06:47:45.879Z,101287.09
2024-02-27T06:49:48.793Z,101294.50
2024-02-27T06:51:51.835Z,101286.25
2024-02-27T06:53:54.411Z,101297.94
2024-02-27T06:55:57.103Z,101286.28
2024-02-27T06:57:59.640Z,101289.63
2024-02-27T07:00:02.568Z,101291.47
2024-02-27T07:02:08.225Z,101285.53
2024-02-27T07:04:10.810Z,101272.59
2024-02-27T07:06:13.628Z,101282.41
2024-02-27T07:08:16.359Z,101284.09
2024-02-27T07:10:18.964Z,101280.59
2024-02-27T07:12:21.717Z,101280.31
2024-02-27T07:14:24.386Z,101288.84
2024-02-27T07:16:27.049Z,101284.13
2024-02-27T07:18:29.827Z,101278.75
2024-02-27T07:20:32.553Z,101277.72
2024-02-27T07:22:35.105Z,101274.28
2024-02-27T07:24:37.873Z,101269.56
2024-02-27T07:26:40.419Z,101271.59
2024-02-27T07:28:44.936Z,101272.88
2024-02-27T07:30:49.791Z,101268.38
2024-02-27T07:32:52.716Z,101274.38
2024-02-27T07:34:55.366Z,101265.03
2024-02-27T07:36:57.962Z,101274.66
2024-02-27T07:39:00.606Z,101270.28
2024-02-27T07:41:04.194Z,101274.56
2024-02-27T07:43:06.860Z,101277.91
2024-02-27T07:45:09.996Z,101268.94
2024-02-27T07:47:12.572Z,101265.19
2024-02-27T07:49:15.456Z,101264.38
2024-02-27T07:51:34.368Z,101272.25
2024-02-27T07:53:36.969Z,101274.91
2024-02-27T07:55:40.469Z,101275.19
2024-02-27T07:57:42.976Z,101259.53
2024-02-27T07:59:45.591Z,101270.16
2024-02-27T08:01:48.205Z,101263.81
2024-02-27T08:03:50.781Z,101266.09
2024-02-27T08:05:53.524Z,101265.94
2024-02-27T08:07:56.192Z,101256.19
2024-02-27T08:09:58.800Z,101270.09
2024-02-27T08:12:01.695Z,101249.72
2024-02-27T08:14:05.299Z,101248.88
2024-02-27T08:16:08.130Z,101253.69
2024-02-27T08:18:10.930Z,101249.78
2024-02-27T08:20:13.705Z,101258.59
2024-02-27T08:22:17.878Z,101247.59
2024-02-27T08:24:20.675Z,101247.19
2024-02-27T08:26:23.593Z,101254.06
2024-02-27T08:28:26.298Z,101242.16
2024-02-27T08:30:28.904Z,101247.22
2024-02-27T08:32:32.902Z,101244.34
2024-02-27T08:34:35.741Z,101247.59
2024-02-27T08:36:38.613Z,101236.72
2024-02-27T08:38:45.466Z,101235.75
2024-02-27T08:40:47.993Z,101236.16
2024-02-27T08:42:51.776Z,101230.19
2024-02-27T08:44:54.609Z,101241.09
2024-02-27T08:47:00.338Z,101229.84
2024-02-27T08:49:04.388Z,101224.88
2024-02-27T08:51:07.025Z,101234.94
2024-02-27T08:53:10.008Z,101241.97
2024-02-27T08:55:12.622Z,101233.59
2024-02-27T08:57:15.407Z,101229.59
2024-02-27T08:59:19.480Z,101238.44
2024-02-27T09:01:22.121Z,101248.38
2024-02-27T09:03:24.726Z,101259.22
2024-02-27T09:05:27.434Z,101265.66
2024-02-27T09:07:30.052Z,101259.78
2024-02-27T09:09:32.798Z,101257.78
2024-02-27T09:11:35.821Z,101256.63
2024-02-27T09:13:38.460Z,101268.38
2024-02-27T09:15:41.136Z,101262.59
2024-02-27T09:17:43.949Z,101263.16
2024-02-27T09:19:48.405Z,101275.66
2024-02-27T09:21:51.124Z,101268.69
2024-02-27T09:23:55.910Z,101267.53
2024-02-27T09:25:58.553Z,101275.03
2024-02-27T09:28:01.460Z,101273.16
2024-02-27T09:30:04.464Z,101282.19
2024-02-27T09:32:07.600Z,101259.47
2024-02-27T10:10:59.393Z,101227.78
2024-02-27T10:13:02.249Z,101220.94
2024-02-27T10:15:06.291Z,101230.53
2024-02-27T10:17:10.589Z,101223.53
2024-02-27T10:19:13.490Z,101222.53
2024-02-27T10:21:18.560Z,101219.44
2024-02-27T10:23:21.358Z,101207.16
2024-02-27T10:25:29.228Z,101211.66
2024-02-27T10:27:37.378Z,101209.19
2024-02-27T10:29:42.845Z,101208.19
2024-02-27T10:31:46.138Z,101204.06
2024-02-27T10:33:49.285Z,101198.28
2024-02-27T10:35:53.701Z,101197.00
2024-02-27T10:37:57.939Z,101185.81
2024-02-27T10:40:01.696Z,101198.28
2024-02-27T10:42:05.516Z,101199.50
2024-02-27T10:44:14.312Z,101194.53
2024-02-27T10:46:17.880Z,101192.88
2024-02-27T10:48:26.911Z,101194.94
2024-02-27T10:50:37.383Z,101197.19
2024-02-27T10:52:40.730Z,101201.75
2024-02-27T10:54:46.764Z,101195.91
2024-02-27T10:56:50.588Z,101195.63
2024-02-27T10:58:54.502Z,101205.31
2024-02-27T11:00:57.906Z,101199.91
2024-02-27T11:03:06.540Z,101202.31
2024-02-27T11:05:10.351Z,101208.72
2024-02-27T11:07:15.334Z,101191.78
2024-02-27T11:09:25.842Z,101191.66
2024-02-27T11:11:29.333Z,101189.41
2024-02-27T11:13:34.173Z,101186.97
2024-02-27T11:15:40.712Z,101186.13
2024-02-27T11:17:47.170Z,101181.97
2024-02-27T11:19:51.733Z,101178.25
2024-02-27T11:21:55.775Z,101173.72
2024-02-27T11:23:59.009Z,101183.31
2024-02-27T11:26:03.061Z,101193.72
2024-02-27T11:28:06.763Z,101178.59
2024-02-27T11:30:10.844Z,101171.13
2024-02-27T11:32:14.258Z,101174.44
2024-02-27T11:34:25.481Z,101176.50
2024-02-27T11:36:28.510Z,101176.28
2024-02-27T11:38:38.793Z,101187.56
2024-02-27T11:40:49.723Z,101183.25
2024-02-27T11:42:52.719Z,101188.22
2024-02-27T11:45:08.019Z,101188.44
2024-02-27T11:47:34.856Z,101173.13
2024-02-27T11:49:40.942Z,101179.34
2024-02-27T11:51:44.182Z,101179.56
2024-02-27T11:53:47.038Z,101178.50
2024-02-27T11:55:55.379Z,101191.56
2024-02-27T11:58:03.686Z,101188.47
2024-02-27T12:00:11.927Z,101178.97
2024-02-27T12:02:19.241Z,101175.56
2024-02-27T12:04:22.071Z,101168.97
2024-02-27T12:06:24.815Z,101175.03
2024-02-27T12:08:27.622Z,101179.13
2024-02-27T12:10:31.098Z,101168.56
2024-02-27T12:12:35.812Z,101170.81
2024-02-27T12:14:38.746Z,101170.19
2024-02-27T12:16:43.721Z,101171.63
2024-02-27T12:18:48.954Z,101174.34
2024-02-27T12:20:53.076Z,101172.50
2024-02-27T12:22:55.926Z,101175.41
2024-02-27T12:24:59.724Z,101176.44
2024-02-27T12:27:02.544Z,101174.22
2024-02-27T12:29:05.310Z,101170.47
2024-02-27T12:31:08.490Z,101172.13
2024-02-27T12:33:12.177Z,101173.81
2024-02-27T12:35:16.406Z,101170.50
2024-02-27T12:37:19.685Z,101165.28
2024-02-27T12:39:24.478Z,101177.13
2024-02-27T12:41:27.928Z,101178.59
2024-02-27T12:43:30.721Z,101181.94
2024-02-27T12:45:33.579Z,101174.28
2024-02-27T12:47:37.275Z,101179.25
2024-02-27T12:49:40.320Z,101163.88
2024-02-27T12:51:43.234Z,101168.19
2024-02-27T12:53:46.004Z,101160.47
2024-02-27T12:55:49.050Z,101158.50
2024-02-27T12:57:55.719Z,101158.88
2024-02-27T12:59:58.494Z,101159.56
2024-02-27T13:02:01.173Z,101166.28
2024-02-27T13:04:04.110Z,101163.88
2024-02-27T13:06:07.113Z,101154.03
2024-02-27T13:08:11.159Z,101153.94
2024-02-27T13:10:14.620Z,101151.00
2024-02-27T13:12:17.530Z,101138.72
2024-02-27T13:14:20.276Z,101146.22
2024-02-27T13:16:24.615Z,101146.16
2024-02-27T13:18:28.318Z,101142.56
2024-02-27T13:20:31.090Z,101148.72
2024-02-27T13:22:33.786Z,101151.13
2024-02-27T13:24:36.587Z,101144.53
2024-02-27T13:26:39.327Z,101141.81
2024-02-27T13:28:42.053Z,101140.19
2024-02-27T13:30:45.415Z,101146.25
2024-02-27T13:32:48.705Z,101144.50
2024-02-27T13:34:51.578Z,101136.91
2024-02-27T13:36:54.517Z,101137.72
2024-02-27T13:38:57.355Z,101139.25
2024-02-27T13:41:00.217Z,101126.00
2024-02-27T13:43:04.083Z,101137.25
2024-02-27T13:45:07.319Z,101130.66
2024-02-27T13:47:12.098Z,101140.06
2024-02-27T13:49:24.121Z,101129.19
2024-02-27T13:51:27.025Z,101144.56
2024-02-27T13:53:30.493Z,101140.16
2024-02-27T13:55:33.305Z,101149.03
2024-02-27T13:57:36.077Z,101144.41
2024-02-27T13:59:39.008Z,101138.13
2024-02-27T14:01:41.819Z,101131.28
2024-02-27T14:03:45.194Z,101133.88
2024-02-27T14:05:48.257Z,101127.31
2024-02-27T14:07:52.593Z,101127.78
2024-02-27T14:09:55.345Z,101122.34
2024-02-27T14:11:58.225Z,101117.19
2024-02-27T14:14:07.376Z,101117.72
2024-02-27T14:16:16.625Z,101113.19
2024-02-27T14:18:19.607Z,101127.78
2024-02-27T14:20:22.882Z,101115.28
2024-02-27T14:22:25.773Z,101116.97
2024-02-27T14:24:28.633Z,101119.34
2024-02-27T14:26:31.490Z,101127.94
2024-02-27T14:28:34.212Z,101124.78
2024-02-27T14:30:37.003Z,101118.22
2024-02-27T14:32:40.440Z,101121.00
2024-02-27T14:34:43.415Z,101121.34
2024-02-27T14:36:46.596Z,101112.38
2024-02-27T14:38:49.501Z,101113.19
2024-02-27T14:40:52.370Z,101104.53
2024-02-27T14:42:55.210Z,101104.22
2024-02-27T14:44:58.078Z,101111.59
2024-02-27T14:47:00.785Z,101116.97
2024-02-27T14:49:05.338Z,101107.09
2024-02-27T14:51:09.823Z,101102.72
2024-02-27T14:53:13.611Z,101104.94
2024-02-27T14:55:16.465Z,101095.75
2024-02-27T14:57:19.194Z,101102.97
2024-02-27T14:59:22.937Z,101105.13
2024-02-27T15:01:33.119Z,101099.66
2024-02-27T15:03:38.701Z,101104.00
2024-02-27T15:05:41.583Z,101103.53
2024-02-27T15:07:44.786Z,101100.66
2024-02-27T15:09:47.775Z,101106.19
2024-02-27T15:11:50.924Z,101106.75
2024-02-27T15:13:53.689Z,101099.91
2024-02-27T15:15:56.985Z,101113.47
2024-02-27T15:17:59.860Z,101098.50
2024-02-27T15:20:02.772Z,101100.31
2024-02-27T15:22:06.746Z,101111.88
2024-02-27T15:24:09.461Z,101102.69
2024-02-27T15:26:12.216Z,101105.25
2024-02-27T15:28:14.944Z,101104.06
2024-02-27T15:30:21.603Z,101103.75
2024-02-27T15:32:31.405Z,101099.59
2024-02-27T15:34:47.191Z,101105.31
2024-02-27T15:36:58.338Z,101102.34
2024-02-27T15:39:09.215Z,101107.38
2024-02-27T15:42:09.283Z,101100.44
2024-02-27T15:44:28.870Z,101097.25
2024-02-27T15:46:33.723Z,101103.44
2024-02-27T15:48:37.484Z,101098.44
2024-02-27T15:50:40.390Z,101098.59
2024-02-27T15:52:43.092Z,101099.31
2024-02-27T15:54:46.377Z,101092.16
2024-02-27T15:56:49.159Z,101100.00
2024-02-27T15:58:52.090Z,101088.84
2024-02-27T16:00:55.498Z,101070.47
2024-02-27T16:03:12.203Z,101080.19
2024-02-27T16:05:21.370Z,101068.00
2024-02-27T16:07:33.405Z,101074.84
2024-02-27T16:09:38.018Z,101077.72
2024-02-27T16:11:40.684Z,101073.53
2024-02-27T16:13:44.931Z,101082.06
2024-02-27T16:15:47.656Z,101079.25
2024-02-27T16:17:50.411Z,101081.91
2024-02-27T16:19:53.627Z,101083.75
2024-02-27T16:22:05.173Z,101082.94
2024-02-27T16:24:09.453Z,101083.94
2024-02-27T16:26:12.385Z,101089.63
2024-02-27T16:28:15.203Z,101081.25
2024-02-27T16:30:18.087Z,101065.25
2024-02-27T16:32:21.014Z,101078.78
2024-02-27T16:34:25.101Z,101077.09
2024-02-27T16:36:28.312Z,101081.25
2024-02-27T16:38:31.206Z,101091.28
2024-02-27T16:40:33.889Z,101084.28
2024-02-27T16:42:36.798Z,101074.59
2024-02-27T16:44:39.644Z,101074.25
2024-02-27T16:46:42.392Z,101082.47
2024-02-27T16:48:45.182Z,101068.59
2024-02-27T16:50:47.880Z,101073.59
2024-02-27T16:52:51.470Z,101074.63
2024-02-27T16:54:54.341Z,101087.53
2024-02-27T16:56:57.076Z,101086.50
2024-02-27T16:59:01.257Z,101076.16
2024-02-27T17:01:06.640Z,101074.31
2024-02-27T17:03:09.492Z,101076.16
2024-02-27T17:05:12.447Z,101079.00
2024-02-27T17:07:15.218Z,101072.97
2024-02-27T17:09:20.220Z,101087.53
2024-02-27T17:11:23.007Z,101071.84
2024-02-27T17:13:25.811Z,101084.72
2024-02-27T17:15:28.636Z,101072.34
2024-02-27T17:17:31.440Z,101076.69
2024-02-27T17:19:34.655Z,101069.84
2024-02-27T17:21:37.414Z,101073.88
2024-02-27T17:23:40.155Z,101065.53
2024-02-27T17:25:45.033Z,101072.56
2024-02-27T17:27:47.996Z,101077.25
2024-02-27T17:29:52.011Z,101063.56
2024-02-27T17:31:54.722Z,101067.88
2024-02-27T17:33:57.631Z,101069.72
2024-02-27T17:36:01.274Z,101067.56
2024-02-27T17:38:04.637Z,101068.56
2024-02-27T17:40:07.867Z,101057.75
2024-02-27T17:42:10.820Z,101059.25
2024-02-27T17:44:13.564Z,101059.41
2024-02-27T17:46:16.326Z,101063.41
2024-02-27T17:48:19.321Z,101061.56
2024-02-27T17:50:22.176Z,101055.38
2024-02-27T17:52:25.312Z,101059.09
2024-02-27T17:54:28.183Z,101052.41
2024-02-27T17:56:31.016Z,101054.41
2024-02-27T17:58:35.958Z,101048.91
2024-02-27T18:00:39.271Z,101054.59
2024-02-27T18:02:42.137Z,101059.78
2024-02-27T18:04:44.928Z,101059.97
2024-02-27T18:06:48.074Z,101056.63
2024-02-27T18:08:51.010Z,101053.28
2024-02-27T18:10:53.833Z,101048.09
2024-02-27T18:12:56.723Z,101049.28
2024-02-27T18:15:00.563Z,101044.09
2024-02-27T18:17:03.378Z,101039.09
2024-02-27T18:19:06.255Z,101051.78
2024-02-27T18:21:09.253Z,101049.28
2024-02-27T18:23:12.033Z,101050.47
2024-02-27T18:25:14.976Z,101051.44
2024-02-27T18:27:21.720Z,101051.44
2024-02-27T18:29:24.670Z,101047.13
2024-02-27T18:31:27.446Z,101039.78
2024-02-27T18:33:30.377Z,101037.44
2024-02-27T18:35:35.910Z,101027.56
2024-02-27T18:37:38.776Z,101039.13
2024-02-27T18:39:43.856Z,101038.44
2024-02-27T18:41:47.218Z,101049.97
2024-02-27T18:43:50.972Z,101039.44
2024-02-27T18:45:53.773Z,101026.75
2024-02-27T18:47:57.271Z,101042.09
2024-02-27T18:50:03.655Z,101030.44
2024-02-27T18:52:08.072Z,101034.09
2024-02-27T18:54:10.875Z,101035.09
2024-02-27T18:56:13.631Z,101037.94
2024-02-27T18:58:16.521Z,101031.91
2024-02-27T19:00:19.680Z,101025.28
2024-02-27T19:02:22.453Z,101025.44
2024-02-27T19:04:25.246Z,101026.59
2024-02-27T19:06:28.152Z,101032.09
2024-02-27T19:08:31.805Z,101016.56
2024-02-27T19:10:36.934Z,101032.78
2024-02-27T19:12:40.120Z,101033.94
2024-02-27T19:14:43.170Z,101032.09
2024-02-27T19:16:45.954Z,101042.13
2024-02-27T19:18:49.693Z,101022.75
2024-02-27T19:20:52.663Z,101025.59
2024-02-27T19:22:55.528Z,101032.75
2024-02-27T19:24:58.727Z,101029.09
2024-02-27T19:27:01.567Z,101029.75
2024-02-27T19:29:04.462Z,101028.25
2024-02-27T19:31:07.961Z,101029.41
2024-02-27T19:33:11.643Z,101026.75
2024-02-27T19:35:14.502Z,101028.75
2024-02-27T19:37:17.960Z,101018.94
2024-02-27T19:39:20.776Z,101014.41
2024-02-27T19:41:23.549Z,101019.75
2024-02-27T19:43:27.064Z,101019.09
2024-02-27T19:45:30.008Z,101031.41
2024-02-27T19:47:32.926Z,101028.59
2024-02-27T19:49:35.949Z,101020.25
2024-02-27T19:51:38.741Z,101030.75
2024-02-27T19:53:41.819Z,101020.59
2024-02-27T19:55:45.738Z,101026.75
2024-02-27T19:57:48.573Z,101018.06
2024-02-27T19:59:51.389Z,101015.59
2024-02-27T20:01:55.346Z,101030.78
2024-02-27T20:03:58.140Z,101022.09
2024-02-27T20:06:00.908Z,101017.75
2024-02-27T20:08:03.895Z,101027.75
2024-02-27T20:10:08.331Z,101011.41
2024-02-27T20:12:11.541Z,101011.91
2024-02-27T20:14:15.705Z,101011.91
2024-02-27T20:16:18.583Z,101017.25
2024-02-27T20:18:21.470Z,101015.56
2024-02-27T20:20:24.349Z,101031.44
2024-02-27T20:22:28.455Z,101013.91
2024-02-27T20:24:33.541Z,101019.41
2024-02-27T20:26:44.223Z,101013.41
2024-02-27T20:28:53.256Z,101012.41
2024-02-27T20:30:56.331Z,101022.25
2024-02-27T20:33:00.415Z,101016.94
2024-02-27T20:35:03.883Z,101027.59
2024-02-27T20:37:07.588Z,101024.25
2024-02-27T20:39:10.405Z,101031.59
2024-02-27T20:41:13.767Z,101028.09
2024-02-27T20:43:16.571Z,101039.59
2024-02-27T20:45:21.968Z,101040.28
2024-02-27T20:47:24.800Z,101038.59
2024-02-27T20:49:27.532Z,101043.91
2024-02-27T20:51:31.200Z,101047.41
2024-02-27T20:53:34.528Z,101032.06
2024-02-27T20:55:37.268Z,101034.59
2024-02-27T20:57:40.073Z,101030.91
2024-02-27T20:59:42.832Z,101020.06
2024-02-27T21:01:45.699Z,101026.91
2024-02-27T21:03:48.481Z,101023.09
2024-02-27T21:05:51.334Z,101031.91
2024-02-27T21:07:56.254Z,101021.25
2024-02-27T21:10:00.502Z,101018.56
2024-02-27T21:12:03.927Z,101027.59
2024-02-27T21:14:06.664Z,101029.44
2024-02-27T21:16:09.808Z,101028.09
2024-02-27T21:18:13.152Z,101025.41
2024-02-27T21:20:16.133Z,101035.09
2024-02-27T21:22:18.820Z,101025.56
2024-02-27T21:24:21.517Z,101033.75
2024-02-27T21:26:25.802Z,101032.25
2024-02-27T21:28:28.463Z,101029.75
2024-02-27T21:30:31.681Z,101034.06
2024-02-27T21:32:34.584Z,101036.94
2024-02-27T21:34:39.802Z,101040.75
2024-02-27T21:36:42.838Z,101045.44
2024-02-27T21:38:45.585Z,101043.72
2024-02-27T21:40:48.379Z,101045.44
2024-02-27T21:42:51.173Z,101048.25
2024-02-27T21:44:53.914Z,101053.09
2024-02-27T21:46:56.652Z,101049.91
2024-02-27T21:48:59.414Z,101044.72
2024-02-27T21:51:02.262Z,101038.56
2024-02-27T21:53:05.965Z,101037.88
2024-02-27T21:55:08.892Z,101042.38
2024-02-27T21:57:11.638Z,101043.41
2024-02-27T21:59:15.616Z,101037.25
2024-02-27T22:01:18.365Z,101043.41
2024-02-27T22:03:21.385Z,101045.72
2024-02-27T22:05:24.295Z,101042.22
2024-02-27T22:07:27.201Z,101045.41
2024-02-27T22:09:29.878Z,101044.41
2024-02-27T22:11:34.069Z,101036.22
2024-02-27T22:13:38.626Z,101044.06
2024-02-27T22:15:42.151Z,101037.75
2024-02-27T22:17:44.966Z,101049.25
2024-02-27T22:19:47.842Z,101058.25
2024-02-27T22:21:50.729Z,101058.25
2024-02-27T22:23:53.485Z,101055.75
2024-02-27T22:25:56.158Z,101052.41
2024-02-27T22:27:58.922Z,101047.22
2024-02-27T22:30:01.614Z,101047.38
2024-02-27T22:32:04.717Z,101055.25
2024-02-27T22:34:07.453Z,101053.41
2024-02-27T22:36:10.186Z,101050.72
2024-02-27T22:38:12.999Z,101061.59
2024-02-27T22:40:17.332Z,101053.59
2024-02-27T22:42:20.658Z,101055.09
2024-02-27T22:44:23.451Z,101063.56
2024-02-27T22:46:26.176Z,101064.09
2024-02-27T22:48:29.113Z,101065.75
2024-02-27T22:50:31.832Z,101061.25
2024-02-27T22:52:34.539Z,101067.25
2024-02-27T22:54:37.435Z,101075.25
2024-02-27T22:56:40.293Z,101068.44
2024-02-27T22:58:43.018Z,101060.09
2024-02-27T23:00:45.822Z,101058.72
2024-02-27T23:02:49.162Z,101071.41
2024-02-27T23:04:51.910Z,101063.91
2024-02-27T23:06:54.650Z,101066.06
2024-02-27T23:08:57.462Z,101062.22
2024-02-27T23:11:00.159Z,101064.22
2024-02-27T23:13:02.918Z,101057.38
2024-02-27T23:15:06.249Z,101055.53
2024-02-27T23:17:09.008Z,101057.38
2024-02-27T23:19:11.836Z,101062.03
2024-02-27T23:21:14.608Z,101052.66
2024-02-27T23:23:17.324Z,101064.16
2024-02-27T23:25:20.180Z,101061.34
2024-02-27T23:27:24.976Z,101054.31
2024-02-27T23:29:29.211Z,101061.34
2024-02-27T23:31:31.959Z,101054.69
2024-02-27T23:33:34.677Z,101054.03
2024-02-27T23:35:38.439Z,101062.19
2024-02-27T23:37:47.088Z,101047.81
2024-02-27T23:39:49.984Z,101058.69
2024-02-27T23:41:53.018Z,101057.00
2024-02-27T23:43:55.698Z,101063.34
2024-02-27T23:45:58.448Z,101060.16
2024-02-27T23:48:01.278Z,101067.16
2024-02-27T23:50:04.250Z,101061.69
2024-02-27T23:52:07.569Z,101064.34
2024-02-27T23:54:10.450Z,101066.16
2024-02-27T23:56:13.268Z,101069.00
2024-02-27T23:58:17.708Z,101066.63
